LOT2161 EPKK-LEMD
Flight info
| Callsign | LOT2161 |
|---|---|
| Flight time | N/A |
| Altitude | 38000 |
| Route | TUSIN DCT MIKOV DCT OBEDI DCT DETSA/M78F390 DCT NESTI DCT VOG DCT GEKBA DCT VAMTU DCT KOLON DCT GANGU DCT PADKO DCT DIVKO DCT NILDU DCT NENDA N975 ADUXO |
| Aircraft | B738/M-SDE2E3FGHIRWXY/LB1 |
Departure
| Time | 2026-05-06 05:28 |
|---|---|
| Airport | Kraków John Paul II International Airport (EPKK) |
Arrival
| Time | N/A |
|---|---|
| Airport | Adolfo Suárez Madrid–Barajas Airport (LEMD) |
| Time | Latitude | Longitude | Altitude | Speed | Heading |
|---|---|---|---|---|---|
| 2026-05-06 05:11 | 50.07333 | 19.80052 | 799 ft | 0 kts | 167° |
| 2026-05-06 05:19 | 50.07339 | 19.80050 | 799 ft | 2 kts | 167° |
| 2026-05-06 05:20 | 50.07355 | 19.80045 | 799 ft | 3 kts | 167° |
| 2026-05-06 05:20 | 50.07372 | 19.80039 | 799 ft | 0 kts | 167° |
| 2026-05-06 05:20 | 50.07380 | 19.80036 | 799 ft | 2 kts | 167° |
| 2026-05-06 05:21 | 50.07396 | 19.80027 | 799 ft | 3 kts | 150° |
| 2026-05-06 05:21 | 50.07398 | 19.80025 | 799 ft | 0 kts | 147° |
| 2026-05-06 05:24 | 50.07396 | 19.80028 | 799 ft | 2 kts | 134° |
| 2026-05-06 05:24 | 50.07399 | 19.80060 | 799 ft | 7 kts | 72° |
| 2026-05-06 05:25 | 50.07419 | 19.80179 | 799 ft | 14 kts | 77° |
| 2026-05-06 05:25 | 50.07438 | 19.80314 | 799 ft | 9 kts | 77° |
| 2026-05-06 05:25 | 50.07481 | 19.80384 | 799 ft | 12 kts | 19° |
| 2026-05-06 05:25 | 50.07561 | 19.80421 | 799 ft | 12 kts | 13° |
| 2026-05-06 05:26 | 50.07648 | 19.80401 | 799 ft | 14 kts | 348° |
| 2026-05-06 05:26 | 50.07737 | 19.80370 | 799 ft | 13 kts | 346° |
| 2026-05-06 05:26 | 50.07822 | 19.80339 | 799 ft | 12 kts | 347° |
| 2026-05-06 05:26 | 50.07905 | 19.80311 | 799 ft | 13 kts | 348° |
| 2026-05-06 05:27 | 50.08000 | 19.80275 | 799 ft | 11 kts | 328° |
| 2026-05-06 05:27 | 50.08005 | 19.80166 | 799 ft | 16 kts | 257° |
| 2026-05-06 05:27 | 50.07931 | 19.79642 | 799 ft | 84 kts | 258° |
| 2026-05-06 05:27 | 50.07762 | 19.78417 | 801 ft | 145 kts | 257° |
| 2026-05-06 05:28 | 50.07529 | 19.76697 | 1194 ft | 166 kts | 258° |
| 2026-05-06 05:28 | 50.07325 | 19.74961 | 2117 ft | 163 kts | 259° |
| 2026-05-06 05:28 | 50.07112 | 19.73163 | 2776 ft | 175 kts | 257° |
| 2026-05-06 05:28 | 50.06805 | 19.71174 | 3161 ft | 202 kts | 255° |
| 2026-05-06 05:29 | 50.06466 | 19.68899 | 3469 ft | 230 kts | 255° |
| 2026-05-06 05:29 | 50.06094 | 19.66364 | 4036 ft | 247 kts | 255° |
| 2026-05-06 05:29 | 50.05703 | 19.63701 | 4813 ft | 256 kts | 254° |
| 2026-05-06 05:29 | 50.05327 | 19.60972 | 5769 ft | 258 kts | 255° |
| 2026-05-06 05:30 | 50.04947 | 19.58234 | 6763 ft | 259 kts | 253° |
| 2026-05-06 05:30 | 50.04558 | 19.55500 | 7708 ft | 260 kts | 253° |
| 2026-05-06 05:30 | 50.04164 | 19.52744 | 8618 ft | 261 kts | 253° |
| 2026-05-06 05:30 | 50.03767 | 19.49975 | 9520 ft | 264 kts | 253° |
| 2026-05-06 05:31 | 50.03362 | 19.47158 | 10261 ft | 272 kts | 253° |
| 2026-05-06 05:31 | 50.02943 | 19.44194 | 10722 ft | 290 kts | 256° |
| 2026-05-06 05:31 | 50.02743 | 19.41012 | 11346 ft | 302 kts | 266° |
| 2026-05-06 05:31 | 50.02858 | 19.37715 | 12112 ft | 308 kts | 273° |
| 2026-05-06 05:32 | 50.03157 | 19.34392 | 12892 ft | 313 kts | 276° |
| 2026-05-06 05:32 | 50.03528 | 19.31032 | 13635 ft | 318 kts | 276° |
| 2026-05-06 05:32 | 50.03901 | 19.27617 | 14316 ft | 324 kts | 277° |
| 2026-05-06 05:32 | 50.04305 | 19.24157 | 14680 ft | 326 kts | 276° |
| 2026-05-06 05:33 | 50.04676 | 19.20714 | 14795 ft | 327 kts | 276° |
| 2026-05-06 05:33 | 50.05036 | 19.17224 | 14796 ft | 325 kts | 275° |
| 2026-05-06 05:33 | 50.05381 | 19.13748 | 14799 ft | 325 kts | 275° |
| 2026-05-06 05:33 | 50.05722 | 19.10267 | 14800 ft | 325 kts | 275° |
| 2026-05-06 05:34 | 50.06059 | 19.06790 | 14801 ft | 325 kts | 275° |
| 2026-05-06 05:34 | 50.06393 | 19.03313 | 14805 ft | 325 kts | 275° |
| 2026-05-06 05:34 | 50.06725 | 18.99840 | 14806 ft | 325 kts | 275° |
| 2026-05-06 05:34 | 50.07057 | 18.96360 | 14807 ft | 325 kts | 275° |
| 2026-05-06 05:35 | 50.07388 | 18.92883 | 14801 ft | 325 kts | 275° |
| 2026-05-06 05:35 | 50.07720 | 18.89399 | 14797 ft | 325 kts | 275° |
| 2026-05-06 05:35 | 50.08050 | 18.85932 | 14794 ft | 324 kts | 275° |
| 2026-05-06 05:35 | 50.08326 | 18.82454 | 14787 ft | 322 kts | 268° |
| 2026-05-06 05:36 | 50.07977 | 18.79060 | 14789 ft | 315 kts | 247° |
| 2026-05-06 05:36 | 50.06831 | 18.76170 | 15007 ft | 318 kts | 226° |
| 2026-05-06 05:36 | 50.05054 | 18.74135 | 15511 ft | 320 kts | 206° |
| 2026-05-06 05:36 | 50.02968 | 18.72903 | 15756 ft | 321 kts | 201° |
| 2026-05-06 05:37 | 50.00934 | 18.71495 | 15795 ft | 319 kts | 208° |
| 2026-05-06 05:37 | 49.99031 | 18.69739 | 15803 ft | 317 kts | 213° |
| 2026-05-06 05:37 | 49.97149 | 18.67960 | 15805 ft | 316 kts | 210° |
| 2026-05-06 05:37 | 49.95226 | 18.66295 | 15807 ft | 316 kts | 210° |
| 2026-05-06 05:38 | 49.93309 | 18.64645 | 15808 ft | 316 kts | 210° |
| 2026-05-06 05:38 | 49.91380 | 18.62981 | 15852 ft | 319 kts | 210° |
| 2026-05-06 05:38 | 49.89449 | 18.61320 | 16499 ft | 321 kts | 210° |
| 2026-05-06 05:38 | 49.87496 | 18.59643 | 17303 ft | 322 kts | 210° |
| 2026-05-06 05:39 | 49.85595 | 18.57787 | 18014 ft | 324 kts | 217° |
| 2026-05-06 05:39 | 49.83900 | 18.55457 | 18658 ft | 328 kts | 225° |
| 2026-05-06 05:39 | 49.82365 | 18.52819 | 19296 ft | 332 kts | 229° |
| 2026-05-06 05:39 | 49.80883 | 18.50048 | 19921 ft | 336 kts | 230° |
| 2026-05-06 05:40 | 49.79404 | 18.47227 | 20518 ft | 340 kts | 230° |
| 2026-05-06 05:40 | 49.77902 | 18.44373 | 21093 ft | 344 kts | 230° |
| 2026-05-06 05:40 | 49.76385 | 18.41499 | 21670 ft | 347 kts | 229° |
| 2026-05-06 05:40 | 49.74843 | 18.38588 | 22241 ft | 351 kts | 229° |
| 2026-05-06 05:41 | 49.73289 | 18.35659 | 22789 ft | 354 kts | 229° |
| 2026-05-06 05:41 | 49.72250 | 18.33704 | 23145 ft | 356 kts | 229° |
| 2026-05-06 05:41 | 49.70666 | 18.30728 | 23677 ft | 359 kts | 229° |
| 2026-05-06 05:41 | 49.69070 | 18.27736 | 24189 ft | 363 kts | 229° |
| 2026-05-06 05:42 | 49.67455 | 18.24712 | 24700 ft | 366 kts | 229° |
| 2026-05-06 05:42 | 49.65829 | 18.21670 | 25191 ft | 369 kts | 229° |
| 2026-05-06 05:42 | 49.64192 | 18.18612 | 25699 ft | 371 kts | 229° |
| 2026-05-06 05:42 | 49.62543 | 18.15519 | 26165 ft | 374 kts | 229° |
| 2026-05-06 05:43 | 49.60906 | 18.12386 | 26620 ft | 376 kts | 229° |
| 2026-05-06 05:43 | 49.59250 | 18.09239 | 27060 ft | 379 kts | 229° |
| 2026-05-06 05:43 | 49.57578 | 18.06081 | 27499 ft | 381 kts | 229° |
| 2026-05-06 05:43 | 49.55894 | 18.02913 | 27946 ft | 383 kts | 229° |
| 2026-05-06 05:44 | 49.54192 | 17.99724 | 28347 ft | 386 kts | 229° |
| 2026-05-06 05:44 | 49.52483 | 17.96528 | 28776 ft | 388 kts | 229° |
| 2026-05-06 05:44 | 49.50760 | 17.93314 | 29156 ft | 390 kts | 228° |
| 2026-05-06 05:44 | 49.49027 | 17.90088 | 29500 ft | 393 kts | 228° |
| 2026-05-06 05:45 | 49.47303 | 17.86883 | 29887 ft | 395 kts | 228° |
| 2026-05-06 05:45 | 49.45543 | 17.83617 | 30234 ft | 397 kts | 228° |
| 2026-05-06 05:45 | 49.43775 | 17.80342 | 30603 ft | 399 kts | 229° |
| 2026-05-06 05:45 | 49.41998 | 17.77055 | 30918 ft | 401 kts | 229° |
| 2026-05-06 05:46 | 49.40211 | 17.73751 | 31255 ft | 403 kts | 229° |
| 2026-05-06 05:46 | 49.38416 | 17.70438 | 31591 ft | 404 kts | 229° |
| 2026-05-06 05:46 | 49.36611 | 17.67112 | 31906 ft | 406 kts | 229° |
| 2026-05-06 05:46 | 49.34795 | 17.63767 | 32210 ft | 408 kts | 229° |
| 2026-05-06 05:47 | 49.32974 | 17.60419 | 32504 ft | 410 kts | 229° |
| 2026-05-06 05:47 | 49.31143 | 17.57056 | 32787 ft | 412 kts | 230° |
| 2026-05-06 05:47 | 49.29303 | 17.53681 | 33089 ft | 413 kts | 230° |
| 2026-05-06 05:47 | 49.27457 | 17.50300 | 33368 ft | 414 kts | 230° |
| 2026-05-06 05:48 | 49.25602 | 17.46906 | 33633 ft | 416 kts | 230° |
| 2026-05-06 05:48 | 49.23744 | 17.43512 | 33905 ft | 417 kts | 230° |
| 2026-05-06 05:48 | 49.21882 | 17.40113 | 34139 ft | 419 kts | 230° |
| 2026-05-06 05:48 | 49.20006 | 17.36694 | 34441 ft | 418 kts | 230° |
| 2026-05-06 05:49 | 49.18160 | 17.33334 | 34813 ft | 416 kts | 230° |
| 2026-05-06 05:49 | 49.16299 | 17.29950 | 35107 ft | 416 kts | 230° |
| 2026-05-06 05:49 | 49.14438 | 17.26572 | 35412 ft | 416 kts | 230° |
| 2026-05-06 05:49 | 49.12581 | 17.23204 | 35763 ft | 414 kts | 230° |
| 2026-05-06 05:50 | 49.10720 | 17.19834 | 36032 ft | 414 kts | 230° |
| 2026-05-06 05:50 | 49.08864 | 17.16479 | 36311 ft | 414 kts | 230° |
| 2026-05-06 05:50 | 49.07011 | 17.13130 | 36588 ft | 413 kts | 230° |
| 2026-05-06 05:50 | 49.05155 | 17.09782 | 36901 ft | 411 kts | 230° |
| 2026-05-06 05:51 | 49.03308 | 17.06455 | 37212 ft | 410 kts | 230° |
| 2026-05-06 05:51 | 49.01469 | 17.03145 | 37467 ft | 410 kts | 230° |
| 2026-05-06 05:51 | 48.99622 | 16.99822 | 37703 ft | 410 kts | 230° |
| 2026-05-06 05:51 | 48.97797 | 16.96485 | 37836 ft | 412 kts | 230° |
| 2026-05-06 05:52 | 48.94098 | 16.89822 | 37848 ft | 412 kts | 230° |
| 2026-05-06 05:52 | 48.90392 | 16.83218 | 37849 ft | 408 kts | 229° |
| 2026-05-06 05:53 | 48.86702 | 16.76670 | 37851 ft | 409 kts | 229° |
| 2026-05-06 05:53 | 48.83001 | 16.70113 | 37851 ft | 409 kts | 229° |
| 2026-05-06 05:54 | 48.79305 | 16.63548 | 37852 ft | 409 kts | 231° |
| 2026-05-06 05:54 | 48.76090 | 16.56443 | 37854 ft | 408 kts | 237° |
| 2026-05-06 05:55 | 48.73065 | 16.49226 | 37854 ft | 408 kts | 237° |
| 2026-05-06 05:55 | 48.70014 | 16.41985 | 37854 ft | 407 kts | 236° |
| 2026-05-06 05:56 | 48.66959 | 16.34763 | 37856 ft | 407 kts | 236° |
| 2026-05-06 05:56 | 48.63896 | 16.27548 | 37857 ft | 407 kts | 236° |
| 2026-05-06 05:57 | 48.60832 | 16.20348 | 37858 ft | 407 kts | 236° |
| 2026-05-06 05:57 | 48.57804 | 16.13104 | 37861 ft | 407 kts | 237° |
| 2026-05-06 05:58 | 48.54775 | 16.05873 | 37862 ft | 407 kts | 237° |
| 2026-05-06 05:58 | 48.51725 | 15.98661 | 37864 ft | 407 kts | 236° |
| 2026-05-06 05:59 | 48.48674 | 15.91493 | 37863 ft | 406 kts | 236° |
| 2026-05-06 05:59 | 48.45618 | 15.84343 | 37864 ft | 406 kts | 236° |
| 2026-05-06 06:00 | 48.42575 | 15.77244 | 37864 ft | 406 kts | 236° |
| 2026-05-06 06:00 | 48.39509 | 15.70115 | 37864 ft | 406 kts | 236° |
| 2026-05-06 06:01 | 48.36435 | 15.62987 | 37864 ft | 406 kts | 236° |
| 2026-05-06 06:01 | 48.33359 | 15.55874 | 37865 ft | 406 kts | 236° |
| 2026-05-06 06:02 | 48.30280 | 15.48771 | 37865 ft | 406 kts | 236° |
| 2026-05-06 06:02 | 48.27195 | 15.41676 | 37857 ft | 405 kts | 236° |
| 2026-05-06 06:03 | 48.24108 | 15.34592 | 37853 ft | 405 kts | 236° |
| 2026-05-06 06:03 | 48.21016 | 15.27516 | 37858 ft | 405 kts | 236° |
| 2026-05-06 06:04 | 48.17927 | 15.20468 | 37870 ft | 404 kts | 236° |
| 2026-05-06 06:04 | 48.14837 | 15.13431 | 37874 ft | 404 kts | 235° |
| 2026-05-06 06:05 | 48.11742 | 15.06403 | 37873 ft | 404 kts | 235° |
| 2026-05-06 06:05 | 48.08649 | 14.99400 | 37873 ft | 403 kts | 235° |
| 2026-05-06 06:06 | 48.05572 | 14.92448 | 37872 ft | 403 kts | 235° |
| 2026-05-06 06:06 | 48.02477 | 14.85474 | 37872 ft | 403 kts | 235° |
| 2026-05-06 06:07 | 47.99379 | 14.78512 | 37872 ft | 401 kts | 235° |
| 2026-05-06 06:07 | 47.96292 | 14.71592 | 37872 ft | 400 kts | 235° |
| 2026-05-06 06:08 | 47.93204 | 14.64686 | 37872 ft | 400 kts | 235° |
| 2026-05-06 06:08 | 47.90112 | 14.57790 | 37872 ft | 400 kts | 235° |
| 2026-05-06 06:09 | 47.87013 | 14.50896 | 37873 ft | 400 kts | 235° |
| 2026-05-06 06:09 | 47.83917 | 14.44024 | 37874 ft | 399 kts | 235° |
| 2026-05-06 06:10 | 47.80820 | 14.37171 | 37876 ft | 399 kts | 235° |
| 2026-05-06 06:10 | 47.77717 | 14.30317 | 37877 ft | 399 kts | 235° |
| 2026-05-06 06:11 | 47.74595 | 14.23442 | 37869 ft | 404 kts | 234° |
| 2026-05-06 06:11 | 47.71428 | 14.16485 | 37867 ft | 407 kts | 234° |
| 2026-05-06 06:12 | 47.68274 | 14.09573 | 38095 ft | 408 kts | 234° |
| 2026-05-06 06:12 | 47.66682 | 14.06090 | 38363 ft | 407 kts | 234° |
| 2026-05-06 06:12 | 47.65095 | 14.02624 | 38613 ft | 406 kts | 234° |
| 2026-05-06 06:13 | 47.63508 | 13.99160 | 38806 ft | 406 kts | 234° |
| 2026-05-06 06:13 | 47.61916 | 13.95692 | 38858 ft | 408 kts | 234° |
| 2026-05-06 06:13 | 47.58718 | 13.88737 | 38866 ft | 406 kts | 234° |
| 2026-05-06 06:14 | 47.55541 | 13.81845 | 38867 ft | 405 kts | 234° |
| 2026-05-06 06:14 | 47.52356 | 13.74953 | 38867 ft | 406 kts | 234° |
| 2026-05-06 06:15 | 47.49198 | 13.68051 | 38870 ft | 405 kts | 234° |
| 2026-05-06 06:15 | 47.46015 | 13.61172 | 38876 ft | 405 kts | 234° |
| 2026-05-06 06:16 | 47.42815 | 13.54324 | 38879 ft | 405 kts | 234° |
| 2026-05-06 06:16 | 47.39605 | 13.47479 | 38879 ft | 405 kts | 234° |
| 2026-05-06 06:17 | 47.36397 | 13.40651 | 38880 ft | 405 kts | 234° |
| 2026-05-06 06:17 | 47.33189 | 13.33826 | 38883 ft | 405 kts | 234° |
| 2026-05-06 06:18 | 47.29907 | 13.27074 | 38886 ft | 405 kts | 232° |
| 2026-05-06 06:18 | 47.26595 | 13.20431 | 38889 ft | 405 kts | 232° |
| 2026-05-06 06:19 | 47.23243 | 13.13699 | 38897 ft | 406 kts | 232° |
| 2026-05-06 06:19 | 47.19927 | 13.07053 | 38900 ft | 405 kts | 232° |
| 2026-05-06 06:20 | 47.16559 | 13.00310 | 38906 ft | 407 kts | 232° |
| 2026-05-06 06:20 | 47.13222 | 12.93644 | 38910 ft | 409 kts | 232° |
| 2026-05-06 06:21 | 47.09895 | 12.86884 | 38918 ft | 408 kts | 233° |
| 2026-05-06 06:21 | 47.06556 | 12.80160 | 38924 ft | 407 kts | 232° |
| 2026-05-06 06:22 | 47.03196 | 12.73445 | 38933 ft | 408 kts | 232° |
| 2026-05-06 06:22 | 46.99828 | 12.66740 | 38943 ft | 409 kts | 232° |
| 2026-05-06 06:23 | 46.96476 | 12.59995 | 38949 ft | 408 kts | 232° |
| 2026-05-06 06:23 | 46.93127 | 12.53367 | 38957 ft | 407 kts | 232° |
| 2026-05-06 06:24 | 46.89739 | 12.46702 | 38969 ft | 410 kts | 232° |
| 2026-05-06 06:24 | 46.86328 | 12.40015 | 38976 ft | 410 kts | 232° |
| 2026-05-06 06:25 | 46.82922 | 12.33343 | 38982 ft | 408 kts | 232° |
| 2026-05-06 06:26 | 46.77800 | 12.23409 | 38992 ft | 409 kts | 231° |
| 2026-05-06 06:26 | 46.74345 | 12.16837 | 38992 ft | 408 kts | 232° |
| 2026-05-06 06:27 | 46.70882 | 12.10267 | 38994 ft | 408 kts | 232° |
| 2026-05-06 06:27 | 46.68007 | 12.04822 | 38989 ft | 408 kts | 231° |
| 2026-05-06 06:28 | 46.64540 | 11.98272 | 38986 ft | 409 kts | 231° |
| 2026-05-06 06:28 | 46.61053 | 11.91695 | 38983 ft | 411 kts | 231° |
| 2026-05-06 06:29 | 46.57585 | 11.85088 | 38979 ft | 409 kts | 232° |
| 2026-05-06 06:29 | 46.54145 | 11.78512 | 38982 ft | 409 kts | 232° |
| 2026-05-06 06:30 | 46.50677 | 11.71951 | 38974 ft | 410 kts | 231° |
| 2026-05-06 06:30 | 46.47199 | 11.65402 | 38967 ft | 409 kts | 231° |
| 2026-05-06 06:31 | 46.43719 | 11.58873 | 38966 ft | 409 kts | 231° |
| 2026-05-06 06:31 | 46.40239 | 11.52361 | 38962 ft | 409 kts | 231° |
| 2026-05-06 06:32 | 46.36757 | 11.45862 | 38955 ft | 408 kts | 231° |
| 2026-05-06 06:32 | 46.33272 | 11.39373 | 38951 ft | 409 kts | 231° |
| 2026-05-06 06:33 | 46.29802 | 11.32925 | 38954 ft | 409 kts | 231° |
| 2026-05-06 06:33 | 46.26296 | 11.26432 | 38948 ft | 409 kts | 231° |
| 2026-05-06 06:34 | 46.22792 | 11.19950 | 38952 ft | 409 kts | 231° |
| 2026-05-06 06:34 | 46.19294 | 11.13500 | 38957 ft | 407 kts | 231° |
| 2026-05-06 06:35 | 46.15799 | 11.07065 | 38965 ft | 408 kts | 231° |
| 2026-05-06 06:35 | 46.12295 | 11.00631 | 38964 ft | 407 kts | 231° |
| 2026-05-06 06:36 | 46.08791 | 10.94209 | 38964 ft | 407 kts | 231° |
| 2026-05-06 06:36 | 46.05289 | 10.87811 | 38961 ft | 406 kts | 231° |
| 2026-05-06 06:37 | 46.01780 | 10.81407 | 38955 ft | 407 kts | 231° |
| 2026-05-06 06:37 | 45.98297 | 10.74995 | 38949 ft | 405 kts | 231° |
| 2026-05-06 06:38 | 45.94849 | 10.68717 | 38942 ft | 401 kts | 231° |
| 2026-05-06 06:38 | 45.91371 | 10.62438 | 38936 ft | 402 kts | 231° |
| 2026-05-06 06:39 | 45.87887 | 10.56167 | 38930 ft | 402 kts | 231° |
| 2026-05-06 06:39 | 45.84396 | 10.49894 | 38923 ft | 402 kts | 231° |
| 2026-05-06 06:40 | 45.80910 | 10.43633 | 38918 ft | 402 kts | 231° |
| 2026-05-06 06:40 | 45.77406 | 10.37395 | 38914 ft | 401 kts | 230° |
| 2026-05-06 06:41 | 45.73891 | 10.31186 | 38911 ft | 401 kts | 230° |
| 2026-05-06 06:41 | 45.70373 | 10.24986 | 38909 ft | 401 kts | 230° |
| 2026-05-06 06:42 | 45.66852 | 10.18794 | 38908 ft | 401 kts | 230° |
| 2026-05-06 06:42 | 45.63324 | 10.12605 | 38907 ft | 401 kts | 230° |
| 2026-05-06 06:43 | 45.59820 | 10.06469 | 38906 ft | 401 kts | 230° |
| 2026-05-06 06:43 | 45.56318 | 10.00256 | 38906 ft | 401 kts | 231° |
| 2026-05-06 06:44 | 45.52812 | 9.94053 | 38905 ft | 402 kts | 230° |
| 2026-05-06 06:44 | 45.49289 | 9.87869 | 38904 ft | 401 kts | 230° |
| 2026-05-06 06:45 | 45.45762 | 9.81705 | 38902 ft | 400 kts | 230° |
| 2026-05-06 06:45 | 45.42237 | 9.75563 | 38901 ft | 401 kts | 230° |
| 2026-05-06 06:46 | 45.38729 | 9.69466 | 38899 ft | 401 kts | 230° |
| 2026-05-06 06:46 | 45.35195 | 9.63339 | 38890 ft | 400 kts | 230° |
| 2026-05-06 06:47 | 45.31666 | 9.57233 | 38883 ft | 400 kts | 230° |
| 2026-05-06 06:47 | 45.28128 | 9.51125 | 38881 ft | 400 kts | 230° |
| 2026-05-06 06:48 | 45.24587 | 9.45025 | 38879 ft | 400 kts | 230° |
| 2026-05-06 06:48 | 45.21043 | 9.38932 | 38878 ft | 400 kts | 230° |
| 2026-05-06 06:49 | 45.17497 | 9.32849 | 38877 ft | 400 kts | 230° |
| 2026-05-06 06:49 | 45.13978 | 9.26751 | 38875 ft | 399 kts | 230° |
| 2026-05-06 06:50 | 45.10434 | 9.20695 | 38871 ft | 399 kts | 230° |
| 2026-05-06 06:50 | 45.06900 | 9.14693 | 38869 ft | 399 kts | 230° |
| 2026-05-06 06:51 | 45.03338 | 9.08659 | 38867 ft | 400 kts | 230° |
| 2026-05-06 06:51 | 44.99772 | 9.02625 | 38865 ft | 400 kts | 230° |
| 2026-05-06 06:52 | 44.96210 | 8.96599 | 38862 ft | 400 kts | 230° |
| 2026-05-06 06:52 | 44.92708 | 8.90497 | 38859 ft | 400 kts | 231° |
| 2026-05-06 06:53 | 44.89208 | 8.84402 | 38853 ft | 400 kts | 231° |
| 2026-05-06 06:53 | 44.85698 | 8.78312 | 38847 ft | 399 kts | 231° |
| 2026-05-06 06:54 | 44.82182 | 8.72209 | 38861 ft | 404 kts | 231° |
| 2026-05-06 06:54 | 44.78616 | 8.66058 | 38879 ft | 405 kts | 231° |
| 2026-05-06 06:55 | 44.75082 | 8.59972 | 38847 ft | 402 kts | 231° |
| 2026-05-06 06:55 | 44.71600 | 8.53877 | 38832 ft | 398 kts | 231° |
| 2026-05-06 06:56 | 44.68055 | 8.47726 | 38725 ft | 413 kts | 231° |
| 2026-05-06 06:56 | 44.66242 | 8.44606 | 38860 ft | 413 kts | 231° |
| 2026-05-06 06:56 | 44.64434 | 8.41486 | 38819 ft | 410 kts | 231° |
| 2026-05-06 06:57 | 44.60870 | 8.35359 | 38826 ft | 401 kts | 231° |
| 2026-05-06 06:57 | 44.57363 | 8.29347 | 38829 ft | 396 kts | 231° |
| 2026-05-06 06:58 | 44.53865 | 8.23366 | 38830 ft | 398 kts | 231° |
| 2026-05-06 06:58 | 44.50349 | 8.17369 | 38838 ft | 397 kts | 231° |
| 2026-05-06 06:59 | 44.46872 | 8.11420 | 38846 ft | 397 kts | 231° |
| 2026-05-06 06:59 | 44.43353 | 8.05392 | 38849 ft | 397 kts | 231° |
| 2026-05-06 07:00 | 44.39838 | 7.99441 | 38845 ft | 396 kts | 231° |
| 2026-05-06 07:00 | 44.36338 | 7.93541 | 38845 ft | 398 kts | 231° |
| 2026-05-06 07:01 | 44.32801 | 7.87591 | 38846 ft | 397 kts | 231° |
| 2026-05-06 07:01 | 44.29266 | 7.81651 | 38846 ft | 396 kts | 231° |
| 2026-05-06 07:02 | 44.25513 | 7.76014 | 38847 ft | 397 kts | 224° |
| 2026-05-06 07:02 | 44.21396 | 7.70924 | 38846 ft | 398 kts | 223° |
| 2026-05-06 07:03 | 44.17211 | 7.65790 | 38848 ft | 399 kts | 223° |
| 2026-05-06 07:03 | 44.13236 | 7.60511 | 38850 ft | 398 kts | 229° |
| 2026-05-06 07:04 | 44.09596 | 7.54707 | 38853 ft | 397 kts | 230° |
| 2026-05-06 07:04 | 44.05980 | 7.48878 | 38855 ft | 398 kts | 230° |
| 2026-05-06 07:05 | 44.02339 | 7.43066 | 38857 ft | 398 kts | 230° |
| 2026-05-06 07:05 | 43.98694 | 7.37273 | 38861 ft | 398 kts | 230° |
| 2026-05-06 07:06 | 43.95079 | 7.31540 | 38864 ft | 395 kts | 230° |
| 2026-05-06 07:06 | 43.91494 | 7.25765 | 38870 ft | 395 kts | 230° |
| 2026-05-06 07:07 | 43.87886 | 7.19992 | 38872 ft | 395 kts | 230° |
| 2026-05-06 07:07 | 43.84250 | 7.14252 | 38874 ft | 396 kts | 230° |
| 2026-05-06 07:08 | 43.80607 | 7.08527 | 38875 ft | 396 kts | 229° |
| 2026-05-06 07:08 | 43.76962 | 7.02809 | 38875 ft | 396 kts | 229° |
| 2026-05-06 07:09 | 43.73453 | 6.96941 | 38876 ft | 396 kts | 236° |
| 2026-05-06 07:09 | 43.70868 | 6.90276 | 38875 ft | 397 kts | 244° |
| 2026-05-06 07:10 | 43.68681 | 6.83267 | 38875 ft | 397 kts | 246° |
| 2026-05-06 07:10 | 43.66556 | 6.76218 | 38876 ft | 398 kts | 246° |
| 2026-05-06 07:11 | 43.64440 | 6.69146 | 38879 ft | 398 kts | 246° |
| 2026-05-06 07:11 | 43.62323 | 6.62068 | 38886 ft | 401 kts | 246° |
| 2026-05-06 07:12 | 43.60204 | 6.54976 | 38886 ft | 403 kts | 246° |
| 2026-05-06 07:12 | 43.58107 | 6.47801 | 38894 ft | 400 kts | 247° |
| 2026-05-06 07:13 | 43.56028 | 6.40664 | 38897 ft | 403 kts | 246° |
| 2026-05-06 07:13 | 43.53892 | 6.33533 | 38901 ft | 401 kts | 246° |
| 2026-05-06 07:14 | 43.51746 | 6.26444 | 38901 ft | 401 kts | 246° |
| 2026-05-06 07:14 | 43.49595 | 6.19350 | 38903 ft | 401 kts | 246° |
| 2026-05-06 07:15 | 43.47441 | 6.12252 | 38903 ft | 402 kts | 246° |
| 2026-05-06 07:15 | 43.45274 | 6.05125 | 38904 ft | 404 kts | 246° |
| 2026-05-06 07:16 | 43.43117 | 5.98067 | 38902 ft | 401 kts | 246° |
| 2026-05-06 07:16 | 43.40937 | 5.90958 | 38902 ft | 404 kts | 246° |
| 2026-05-06 07:17 | 43.38749 | 5.83846 | 38902 ft | 403 kts | 245° |
| 2026-05-06 07:17 | 43.36566 | 5.76760 | 38903 ft | 403 kts | 245° |
| 2026-05-06 07:18 | 43.34786 | 5.70823 | 38904 ft | 404 kts | 246° |
| 2026-05-06 07:18 | 43.32634 | 5.63704 | 38904 ft | 402 kts | 246° |
| 2026-05-06 07:19 | 43.30441 | 5.56618 | 38906 ft | 405 kts | 245° |
| 2026-05-06 07:19 | 43.28224 | 5.49505 | 38908 ft | 404 kts | 245° |
| 2026-05-06 07:20 | 43.26015 | 5.42430 | 38906 ft | 403 kts | 245° |
| 2026-05-06 07:20 | 43.23806 | 5.35362 | 38906 ft | 403 kts | 245° |
| 2026-05-06 07:21 | 43.21598 | 5.28308 | 38904 ft | 403 kts | 245° |
| 2026-05-06 07:21 | 43.19374 | 5.21244 | 38906 ft | 403 kts | 245° |
| 2026-05-06 07:22 | 43.17200 | 5.14211 | 38906 ft | 403 kts | 246° |
| 2026-05-06 07:22 | 43.14994 | 5.07149 | 38907 ft | 404 kts | 245° |
| 2026-05-06 07:23 | 43.12755 | 5.00081 | 38907 ft | 404 kts | 245° |
| 2026-05-06 07:23 | 43.10508 | 4.93026 | 38907 ft | 404 kts | 245° |
| 2026-05-06 07:24 | 43.08258 | 4.85972 | 38908 ft | 404 kts | 245° |
| 2026-05-06 07:24 | 43.05697 | 4.79154 | 38910 ft | 404 kts | 234° |
| 2026-05-06 07:25 | 43.01927 | 4.73453 | 38910 ft | 405 kts | 225° |
| 2026-05-06 07:25 | 42.97896 | 4.68435 | 38911 ft | 405 kts | 223° |
| 2026-05-06 07:26 | 42.93679 | 4.63325 | 38911 ft | 405 kts | 223° |
| 2026-05-06 07:26 | 42.89449 | 4.58232 | 38913 ft | 406 kts | 223° |
| 2026-05-06 07:27 | 42.85213 | 4.53150 | 38914 ft | 405 kts | 223° |
| 2026-05-06 07:27 | 42.81011 | 4.48121 | 38923 ft | 404 kts | 223° |
| 2026-05-06 07:28 | 42.76802 | 4.43032 | 38928 ft | 405 kts | 223° |
| 2026-05-06 07:28 | 42.70476 | 4.35431 | 38928 ft | 404 kts | 223° |
| 2026-05-06 07:29 | 42.66258 | 4.30393 | 38929 ft | 403 kts | 223° |
| 2026-05-06 07:29 | 42.62037 | 4.25365 | 38930 ft | 404 kts | 223° |
| 2026-05-06 07:30 | 42.57816 | 4.20348 | 38933 ft | 402 kts | 223° |
| 2026-05-06 07:30 | 42.53602 | 4.15348 | 38936 ft | 403 kts | 223° |
| 2026-05-06 07:31 | 42.49386 | 4.10335 | 38938 ft | 403 kts | 223° |
| 2026-05-06 07:31 | 42.45183 | 4.05337 | 38939 ft | 402 kts | 223° |
| 2026-05-06 07:32 | 42.40963 | 4.00366 | 38940 ft | 402 kts | 223° |
| 2026-05-06 07:32 | 42.36765 | 3.95438 | 38943 ft | 402 kts | 223° |
| 2026-05-06 07:33 | 42.32540 | 3.90486 | 38953 ft | 402 kts | 223° |
| 2026-05-06 07:33 | 42.28319 | 3.85533 | 38958 ft | 402 kts | 224° |
| 2026-05-06 07:34 | 42.24587 | 3.79951 | 38960 ft | 400 kts | 233° |
| 2026-05-06 07:34 | 42.21309 | 3.73881 | 38960 ft | 400 kts | 235° |
| 2026-05-06 07:35 | 42.18061 | 3.67771 | 38960 ft | 400 kts | 235° |
| 2026-05-06 07:35 | 42.14818 | 3.61671 | 38961 ft | 400 kts | 235° |
| 2026-05-06 07:36 | 42.11567 | 3.55562 | 38959 ft | 401 kts | 235° |
| 2026-05-06 07:36 | 42.08331 | 3.49489 | 38961 ft | 402 kts | 235° |
| 2026-05-06 07:37 | 42.05087 | 3.43371 | 38962 ft | 402 kts | 235° |
| 2026-05-06 07:37 | 42.01860 | 3.37239 | 38962 ft | 402 kts | 235° |
| 2026-05-06 07:38 | 41.98603 | 3.31111 | 38963 ft | 402 kts | 235° |
| 2026-05-06 07:38 | 41.95360 | 3.25036 | 38962 ft | 398 kts | 235° |
| 2026-05-06 07:39 | 41.92123 | 3.18990 | 38963 ft | 399 kts | 235° |
| 2026-05-06 07:39 | 41.88878 | 3.12942 | 38963 ft | 399 kts | 235° |
| 2026-05-06 07:40 | 41.85649 | 3.06882 | 38963 ft | 399 kts | 235° |
| 2026-05-06 07:40 | 41.82403 | 3.00836 | 38964 ft | 399 kts | 235° |
| 2026-05-06 07:41 | 41.79140 | 2.94809 | 38964 ft | 400 kts | 235° |
| 2026-05-06 07:41 | 41.75863 | 2.88776 | 38964 ft | 401 kts | 235° |
| 2026-05-06 07:42 | 41.72582 | 2.82744 | 38965 ft | 401 kts | 235° |
| 2026-05-06 07:42 | 41.69301 | 2.76715 | 38964 ft | 401 kts | 235° |
| 2026-05-06 07:43 | 41.65954 | 2.70756 | 38964 ft | 401 kts | 233° |
| 2026-05-06 07:43 | 41.62492 | 2.64889 | 38961 ft | 401 kts | 233° |
| 2026-05-06 07:44 | 41.59065 | 2.59053 | 38964 ft | 401 kts | 233° |
| 2026-05-06 07:44 | 41.55622 | 2.53182 | 38964 ft | 401 kts | 233° |
| 2026-05-06 07:45 | 41.52178 | 2.47314 | 38964 ft | 401 kts | 233° |
| 2026-05-06 07:45 | 41.48767 | 2.41412 | 38963 ft | 401 kts | 234° |
| 2026-05-06 07:46 | 41.45346 | 2.35529 | 38964 ft | 401 kts | 233° |
| 2026-05-06 07:46 | 41.41899 | 2.29673 | 38965 ft | 401 kts | 233° |
| 2026-05-06 07:47 | 41.38445 | 2.23832 | 38964 ft | 401 kts | 233° |
| 2026-05-06 07:47 | 41.34984 | 2.17987 | 38964 ft | 401 kts | 233° |
| 2026-05-06 07:48 | 41.31826 | 2.11902 | 38965 ft | 400 kts | 245° |
| 2026-05-06 07:48 | 41.30205 | 2.04830 | 38964 ft | 401 kts | 257° |
| 2026-05-06 07:49 | 41.29247 | 1.97567 | 38965 ft | 402 kts | 259° |
| 2026-05-06 07:49 | 41.28376 | 1.90210 | 38964 ft | 403 kts | 259° |
| 2026-05-06 07:50 | 41.27508 | 1.82854 | 38964 ft | 402 kts | 259° |
| 2026-05-06 07:50 | 41.26641 | 1.75504 | 38965 ft | 402 kts | 259° |
| 2026-05-06 07:51 | 41.25774 | 1.68155 | 38966 ft | 402 kts | 259° |
| 2026-05-06 07:51 | 41.24903 | 1.60812 | 38965 ft | 402 kts | 259° |
| 2026-05-06 07:52 | 41.24071 | 1.53463 | 38965 ft | 402 kts | 259° |
| 2026-05-06 07:52 | 41.23206 | 1.46125 | 38965 ft | 402 kts | 259° |
| 2026-05-06 07:53 | 41.22318 | 1.38793 | 38965 ft | 402 kts | 259° |
| 2026-05-06 07:53 | 41.21424 | 1.31464 | 38964 ft | 402 kts | 259° |
| 2026-05-06 07:54 | 41.20528 | 1.24139 | 38965 ft | 402 kts | 259° |
| 2026-05-06 07:54 | 41.19633 | 1.16818 | 38964 ft | 402 kts | 259° |
| 2026-05-06 07:55 | 41.18729 | 1.09491 | 38964 ft | 402 kts | 259° |
| 2026-05-06 07:55 | 41.17872 | 1.02214 | 38965 ft | 402 kts | 259° |
| 2026-05-06 07:56 | 41.16961 | 0.94851 | 38966 ft | 402 kts | 259° |
| 2026-05-06 07:56 | 41.16045 | 0.87577 | 38966 ft | 402 kts | 259° |
| 2026-05-06 07:57 | 41.15115 | 0.80248 | 38967 ft | 402 kts | 259° |
| 2026-05-06 07:57 | 41.14185 | 0.72930 | 38968 ft | 402 kts | 259° |
| 2026-05-06 07:58 | 41.13256 | 0.65608 | 38970 ft | 402 kts | 259° |
| 2026-05-06 07:58 | 41.12335 | 0.58287 | 38968 ft | 402 kts | 259° |
| 2026-05-06 07:59 | 41.11400 | 0.50980 | 38970 ft | 402 kts | 259° |
| 2026-05-06 07:59 | 41.10458 | 0.43672 | 38971 ft | 402 kts | 259° |
| 2026-05-06 08:00 | 41.09504 | 0.36361 | 38972 ft | 402 kts | 259° |
| 2026-05-06 08:00 | 41.08551 | 0.29113 | 38974 ft | 402 kts | 259° |
| 2026-05-06 08:01 | 41.07587 | 0.21816 | 38975 ft | 402 kts | 259° |
| 2026-05-06 08:01 | 41.06621 | 0.14522 | 38976 ft | 402 kts | 259° |
| 2026-05-06 08:02 | 41.05721 | 0.07212 | 38978 ft | 402 kts | 259° |
| 2026-05-06 08:02 | 41.04767 | -0.00081 | 38979 ft | 402 kts | 259° |
| 2026-05-06 08:03 | 41.03782 | -0.07409 | 38980 ft | 406 kts | 259° |
| 2026-05-06 08:03 | 41.02780 | -0.14807 | 38982 ft | 409 kts | 259° |
| 2026-05-06 08:04 | 41.01945 | -0.20953 | 38987 ft | 407 kts | 259° |
| 2026-05-06 08:04 | 41.00847 | -0.28300 | 38995 ft | 407 kts | 255° |
| 2026-05-06 08:05 | 40.99061 | -0.35420 | 38999 ft | 408 kts | 251° |
| 2026-05-06 08:05 | 40.97166 | -0.42490 | 39001 ft | 407 kts | 251° |
| 2026-05-06 08:06 | 40.95270 | -0.49543 | 39000 ft | 406 kts | 251° |
| 2026-05-06 08:06 | 40.93349 | -0.56578 | 38999 ft | 407 kts | 251° |
| 2026-05-06 08:07 | 40.91420 | -0.63606 | 39000 ft | 407 kts | 251° |
| 2026-05-06 08:07 | 40.89489 | -0.70632 | 38998 ft | 406 kts | 251° |
| 2026-05-06 08:08 | 40.87558 | -0.77652 | 38997 ft | 406 kts | 251° |
| 2026-05-06 08:08 | 40.85619 | -0.84671 | 38993 ft | 406 kts | 250° |
| 2026-05-06 08:09 | 40.83711 | -0.91696 | 38993 ft | 406 kts | 251° |
| 2026-05-06 08:09 | 40.81772 | -0.98710 | 38831 ft | 408 kts | 250° |
| 2026-05-06 08:10 | 40.80791 | -1.02227 | 38439 ft | 406 kts | 250° |
| 2026-05-06 08:10 | 40.79827 | -1.05672 | 37801 ft | 405 kts | 250° |
| 2026-05-06 08:10 | 40.78850 | -1.09158 | 37144 ft | 405 kts | 250° |
| 2026-05-06 08:10 | 40.77873 | -1.12640 | 36482 ft | 404 kts | 250° |
| 2026-05-06 08:11 | 40.76896 | -1.16118 | 35816 ft | 403 kts | 250° |
| 2026-05-06 08:11 | 40.75923 | -1.19583 | 35149 ft | 402 kts | 250° |
| 2026-05-06 08:11 | 40.74953 | -1.23036 | 34465 ft | 401 kts | 250° |
| 2026-05-06 08:11 | 40.73988 | -1.26473 | 33710 ft | 400 kts | 251° |
| 2026-05-06 08:12 | 40.73022 | -1.29910 | 32949 ft | 399 kts | 250° |
| 2026-05-06 08:12 | 40.72059 | -1.33322 | 32393 ft | 394 kts | 250° |
| 2026-05-06 08:12 | 40.71106 | -1.36694 | 31861 ft | 389 kts | 250° |
| 2026-05-06 08:12 | 40.70166 | -1.40012 | 31347 ft | 383 kts | 251° |
| 2026-05-06 08:13 | 40.69238 | -1.43284 | 30841 ft | 378 kts | 251° |
| 2026-05-06 08:13 | 40.68322 | -1.46508 | 30342 ft | 374 kts | 251° |
| 2026-05-06 08:13 | 40.67417 | -1.49692 | 29856 ft | 369 kts | 251° |
| 2026-05-06 08:13 | 40.66522 | -1.52838 | 29375 ft | 365 kts | 251° |
| 2026-05-06 08:14 | 40.65636 | -1.55949 | 28905 ft | 361 kts | 251° |
| 2026-05-06 08:14 | 40.64769 | -1.58991 | 28441 ft | 357 kts | 251° |
| 2026-05-06 08:14 | 40.63900 | -1.62036 | 27978 ft | 354 kts | 251° |
| 2026-05-06 08:14 | 40.63039 | -1.65054 | 27516 ft | 350 kts | 251° |
| 2026-05-06 08:15 | 40.62204 | -1.68052 | 27054 ft | 347 kts | 252° |
| 2026-05-06 08:15 | 40.61395 | -1.71032 | 26597 ft | 344 kts | 251° |
| 2026-05-06 08:15 | 40.60575 | -1.73976 | 26144 ft | 341 kts | 251° |
| 2026-05-06 08:15 | 40.59753 | -1.76885 | 25693 ft | 338 kts | 251° |
| 2026-05-06 08:16 | 40.58928 | -1.79773 | 25247 ft | 336 kts | 251° |
| 2026-05-06 08:16 | 40.58106 | -1.82637 | 24807 ft | 333 kts | 251° |
| 2026-05-06 08:16 | 40.57290 | -1.85475 | 24362 ft | 330 kts | 251° |
| 2026-05-06 08:16 | 40.56480 | -1.88282 | 23926 ft | 328 kts | 251° |
| 2026-05-06 08:17 | 40.55673 | -1.91075 | 23490 ft | 326 kts | 251° |
| 2026-05-06 08:17 | 40.54866 | -1.93868 | 23051 ft | 328 kts | 251° |
| 2026-05-06 08:17 | 40.54044 | -1.96709 | 22600 ft | 335 kts | 251° |
| 2026-05-06 08:17 | 40.53211 | -1.99589 | 22134 ft | 338 kts | 251° |
| 2026-05-06 08:18 | 40.52379 | -2.02464 | 21658 ft | 336 kts | 251° |
| 2026-05-06 08:18 | 40.51530 | -2.05317 | 21178 ft | 334 kts | 248° |
| 2026-05-06 08:18 | 40.50490 | -2.08033 | 20801 ft | 331 kts | 244° |
| 2026-05-06 08:18 | 40.49328 | -2.10634 | 20462 ft | 329 kts | 242° |
| 2026-05-06 08:19 | 40.48117 | -2.13199 | 20125 ft | 331 kts | 241° |
| 2026-05-06 08:19 | 40.46900 | -2.15773 | 19788 ft | 333 kts | 241° |
| 2026-05-06 08:19 | 40.45684 | -2.18355 | 19452 ft | 333 kts | 241° |
| 2026-05-06 08:19 | 40.44469 | -2.20939 | 19115 ft | 331 kts | 242° |
| 2026-05-06 08:20 | 40.43277 | -2.23474 | 18783 ft | 330 kts | 241° |
| 2026-05-06 08:20 | 40.42080 | -2.26021 | 18451 ft | 326 kts | 242° |
| 2026-05-06 08:20 | 40.40903 | -2.28524 | 18125 ft | 320 kts | 242° |
| 2026-05-06 08:20 | 40.39743 | -2.30992 | 17802 ft | 315 kts | 242° |
| 2026-05-06 08:21 | 40.38609 | -2.33419 | 17486 ft | 309 kts | 242° |
| 2026-05-06 08:21 | 40.37495 | -2.35813 | 17175 ft | 305 kts | 242° |
| 2026-05-06 08:21 | 40.36392 | -2.38167 | 16869 ft | 301 kts | 242° |
| 2026-05-06 08:21 | 40.35300 | -2.40485 | 16566 ft | 297 kts | 242° |
| 2026-05-06 08:22 | 40.34220 | -2.42773 | 16267 ft | 293 kts | 242° |
| 2026-05-06 08:22 | 40.33155 | -2.45025 | 15973 ft | 290 kts | 241° |
| 2026-05-06 08:22 | 40.32096 | -2.47261 | 15680 ft | 287 kts | 241° |
| 2026-05-06 08:22 | 40.31048 | -2.49473 | 15391 ft | 284 kts | 241° |
| 2026-05-06 08:23 | 40.30008 | -2.51665 | 15104 ft | 282 kts | 241° |
| 2026-05-06 08:23 | 40.28983 | -2.53830 | 14821 ft | 279 kts | 241° |
| 2026-05-06 08:23 | 40.27960 | -2.55984 | 14537 ft | 277 kts | 241° |
| 2026-05-06 08:23 | 40.26956 | -2.58124 | 14254 ft | 274 kts | 244° |
| 2026-05-06 08:24 | 40.26332 | -2.60437 | 13986 ft | 268 kts | 262° |
| 2026-05-06 08:24 | 40.26135 | -2.62852 | 13721 ft | 265 kts | 267° |
| 2026-05-06 08:24 | 40.26059 | -2.65253 | 13460 ft | 263 kts | 269° |
| 2026-05-06 08:24 | 40.26038 | -2.67638 | 13204 ft | 260 kts | 270° |
| 2026-05-06 08:25 | 40.26024 | -2.70000 | 12953 ft | 258 kts | 270° |
| 2026-05-06 08:25 | 40.26028 | -2.72306 | 12708 ft | 256 kts | 271° |
| 2026-05-06 08:25 | 40.26035 | -2.74221 | 12508 ft | 254 kts | 271° |
| 2026-05-06 08:25 | 40.26037 | -2.76516 | 12265 ft | 252 kts | 271° |
| 2026-05-06 08:26 | 40.26034 | -2.78796 | 12024 ft | 249 kts | 271° |
| 2026-05-06 08:26 | 40.26027 | -2.81062 | 11786 ft | 248 kts | 271° |
| 2026-05-06 08:26 | 40.26017 | -2.83321 | 11548 ft | 248 kts | 270° |
| 2026-05-06 08:26 | 40.26006 | -2.85579 | 11310 ft | 248 kts | 270° |
| 2026-05-06 08:27 | 40.25993 | -2.87833 | 11073 ft | 248 kts | 270° |